sensor_id;sensor_type;location;lat;lon;timestamp;temperature;humidity
24426;DHT22;12611;44.446;26.000;2022-12-24T00:01:36;5.20;93.40
24426;DHT22;12611;44.446;26.000;2022-12-24T00:04:04;5.30;93.10
24426;DHT22;12611;44.446;26.000;2022-12-24T00:06:32;5.30;93.00
24426;DHT22;12611;44.446;26.000;2022-12-24T00:09:01;5.30;93.00
24426;DHT22;12611;44.446;26.000;2022-12-24T00:11:29;5.30;93.00
24426;DHT22;12611;44.446;26.000;2022-12-24T00:13:58;5.30;92.90
24426;DHT22;12611;44.446;26.000;2022-12-24T00:16:26;5.30;92.90
24426;DHT22;12611;44.446;26.000;2022-12-24T00:18:56;5.30;92.90
24426;DHT22;12611;44.446;26.000;2022-12-24T00:21:24;5.20;92.80
24426;DHT22;12611;44.446;26.000;2022-12-24T00:23:53;5.20;92.80
24426;DHT22;12611;44.446;26.000;2022-12-24T00:26:21;5.30;92.80
24426;DHT22;12611;44.446;26.000;2022-12-24T00:28:49;5.20;92.80
24426;DHT22;12611;44.446;26.000;2022-12-24T00:31:18;5.30;92.80
24426;DHT22;12611;44.446;26.000;2022-12-24T00:33:47;5.20;92.70
24426;DHT22;12611;44.446;26.000;2022-12-24T00:36:17;5.20;92.70
24426;DHT22;12611;44.446;26.000;2022-12-24T00:38:46;5.20;92.70
24426;DHT22;12611;44.446;26.000;2022-12-24T00:41:15;5.20;92.70
24426;DHT22;12611;44.446;26.000;2022-12-24T00:43:56;5.20;92.70
24426;DHT22;12611;44.446;26.000;2022-12-24T00:46:26;5.20;92.60
24426;DHT22;12611;44.446;26.000;2022-12-24T00:48:55;5.20;92.60
24426;DHT22;12611;44.446;26.000;2022-12-24T00:51:25;5.20;92.60
24426;DHT22;12611;44.446;26.000;2022-12-24T00:53:54;5.20;92.60
24426;DHT22;12611;44.446;26.000;2022-12-24T00:56:22;5.20;92.50
24426;DHT22;12611;44.446;26.000;2022-12-24T00:58:51;5.10;92.50
24426;DHT22;12611;44.446;26.000;2022-12-24T01:01:20;5.10;92.70
24426;DHT22;12611;44.446;26.000;2022-12-24T01:03:49;5.10;92.80
24426;DHT22;12611;44.446;26.000;2022-12-24T01:06:19;5.00;92.90
24426;DHT22;12611;44.446;26.000;2022-12-24T01:08:50;5.00;93.00
24426;DHT22;12611;44.446;26.000;2022-12-24T01:11:18;5.00;93.00
24426;DHT22;12611;44.446;26.000;2022-12-24T01:13:47;5.10;93.10
24426;DHT22;12611;44.446;26.000;2022-12-24T01:16:18;5.00;93.00
24426;DHT22;12611;44.446;26.000;2022-12-24T01:18:47;5.10;93.10
24426;DHT22;12611;44.446;26.000;2022-12-24T01:21:15;5.00;93.00
24426;DHT22;12611;44.446;26.000;2022-12-24T01:23:44;5.10;93.10
24426;DHT22;12611;44.446;26.000;2022-12-24T01:26:14;5.00;93.10
24426;DHT22;12611;44.446;26.000;2022-12-24T01:28:42;5.00;93.10
24426;DHT22;12611;44.446;26.000;2022-12-24T01:31:12;5.00;93.30
24426;DHT22;12611;44.446;26.000;2022-12-24T01:33:40;5.00;93.40
24426;DHT22;12611;44.446;26.000;2022-12-24T01:36:09;4.90;93.40
24426;DHT22;12611;44.446;26.000;2022-12-24T01:38:38;5.00;93.40
24426;DHT22;12611;44.446;26.000;2022-12-24T01:41:06;4.90;93.40
24426;DHT22;12611;44.446;26.000;2022-12-24T01:43:53;4.90;93.50
24426;DHT22;12611;44.446;26.000;2022-12-24T01:46:24;4.90;93.60
24426;DHT22;12611;44.446;26.000;2022-12-24T01:48:55;4.90;93.60
24426;DHT22;12611;44.446;26.000;2022-12-24T01:51:27;4.90;93.70
24426;DHT22;12611;44.446;26.000;2022-12-24T01:54:00;4.90;93.70
24426;DHT22;12611;44.446;26.000;2022-12-24T01:56:31;4.90;93.80
24426;DHT22;12611;44.446;26.000;2022-12-24T01:59:05;4.80;94.10
24426;DHT22;12611;44.446;26.000;2022-12-24T02:01:35;4.80;94.30
24426;DHT22;12611;44.446;26.000;2022-12-24T02:04:07;4.80;94.50
24426;DHT22;12611;44.446;26.000;2022-12-24T02:06:38;4.80;94.50
24426;DHT22;12611;44.446;26.000;2022-12-24T02:09:07;4.80;94.60
24426;DHT22;12611;44.446;26.000;2022-12-24T02:11:36;4.80;94.50
24426;DHT22;12611;44.446;26.000;2022-12-24T02:14:07;4.80;94.50
24426;DHT22;12611;44.446;26.000;2022-12-24T02:16:40;4.90;94.60
24426;DHT22;12611;44.446;26.000;2022-12-24T02:19:28;4.90;94.60
24426;DHT22;12611;44.446;26.000;2022-12-24T02:22:06;4.90;94.60
24426;DHT22;12611;44.446;26.000;2022-12-24T02:25:00;4.90;94.50
24426;DHT22;12611;44.446;26.000;2022-12-24T02:27:41;4.90;94.60
24426;DHT22;12611;44.446;26.000;2022-12-24T02:30:16;4.90;94.50
24426;DHT22;12611;44.446;26.000;2022-12-24T02:32:59;4.90;94.50
24426;DHT22;12611;44.446;26.000;2022-12-24T02:35:37;4.90;94.50
24426;DHT22;12611;44.446;26.000;2022-12-24T02:38:12;4.90;94.60
24426;DHT22;12611;44.446;26.000;2022-12-24T02:40:45;4.90;94.60
24426;DHT22;12611;44.446;26.000;2022-12-24T02:43:18;4.90;94.70
24426;DHT22;12611;44.446;26.000;2022-12-24T02:45:54;4.90;94.70
24426;DHT22;12611;44.446;26.000;2022-12-24T02:48:26;4.90;94.80
24426;DHT22;12611;44.446;26.000;2022-12-24T02:51:02;5.00;94.80
24426;DHT22;12611;44.446;26.000;2022-12-24T02:53:31;4.90;94.70
24426;DHT22;12611;44.446;26.000;2022-12-24T02:56:18;4.90;94.80
24426;DHT22;12611;44.446;26.000;2022-12-24T02:59:02;5.00;94.80
24426;DHT22;12611;44.446;26.000;2022-12-24T03:01:44;5.00;95.00
24426;DHT22;12611;44.446;26.000;2022-12-24T03:04:20;4.90;95.00
24426;DHT22;12611;44.446;26.000;2022-12-24T03:07:13;4.90;95.00
24426;DHT22;12611;44.446;26.000;2022-12-24T03:09:53;4.90;95.00
24426;DHT22;12611;44.446;26.000;2022-12-24T03:12:27;4.90;94.90
24426;DHT22;12611;44.446;26.000;2022-12-24T03:14:58;4.90;94.90
24426;DHT22;12611;44.446;26.000;2022-12-24T03:17:29;4.90;94.80
24426;DHT22;12611;44.446;26.000;2022-12-24T03:19:58;4.90;94.80
24426;DHT22;12611;44.446;26.000;2022-12-24T03:22:27;4.90;94.80
24426;DHT22;12611;44.446;26.000;2022-12-24T03:24:57;4.90;94.80
24426;DHT22;12611;44.446;26.000;2022-12-24T03:27:26;4.90;94.80
24426;DHT22;12611;44.446;26.000;2022-12-24T03:29:56;4.90;94.90
24426;DHT22;12611;44.446;26.000;2022-12-24T03:32:32;4.90;95.00
24426;DHT22;12611;44.446;26.000;2022-12-24T03:35:00;4.90;95.00
24426;DHT22;12611;44.446;26.000;2022-12-24T03:37:29;4.90;95.00
24426;DHT22;12611;44.446;26.000;2022-12-24T03:39:57;4.90;95.00
24426;DHT22;12611;44.446;26.000;2022-12-24T03:42:26;4.90;95.00
24426;DHT22;12611;44.446;26.000;2022-12-24T03:44:54;4.90;95.00
24426;DHT22;12611;44.446;26.000;2022-12-24T03:47:22;4.90;95.00
24426;DHT22;12611;44.446;26.000;2022-12-24T03:49:52;4.90;95.00
24426;DHT22;12611;44.446;26.000;2022-12-24T03:52:20;5.00;95.30
24426;DHT22;12611;44.446;26.000;2022-12-24T03:54:48;5.00;95.30
24426;DHT22;12611;44.446;26.000;2022-12-24T03:57:17;5.00;95.30
24426;DHT22;12611;44.446;26.000;2022-12-24T03:59:45;5.00;95.40
24426;DHT22;12611;44.446;26.000;2022-12-24T04:02:13;5.00;95.60
24426;DHT22;12611;44.446;26.000;2022-12-24T04:04:42;5.00;95.60
24426;DHT22;12611;44.446;26.000;2022-12-24T04:07:12;5.00;95.70
24426;DHT22;12611;44.446;26.000;2022-12-24T04:09:40;5.00;95.70
24426;DHT22;12611;44.446;26.000;2022-12-24T04:12:08;5.00;95.80
24426;DHT22;12611;44.446;26.000;2022-12-24T04:14:37;5.00;96.10
24426;DHT22;12611;44.446;26.000;2022-12-24T04:17:05;5.00;95.70
24426;DHT22;12611;44.446;26.000;2022-12-24T04:19:34;5.10;95.70
24426;DHT22;12611;44.446;26.000;2022-12-24T04:22:02;5.10;95.70
24426;DHT22;12611;44.446;26.000;2022-12-24T04:24:32;5.10;96.00
24426;DHT22;12611;44.446;26.000;2022-12-24T04:27:00;5.10;95.70
24426;DHT22;12611;44.446;26.000;2022-12-24T04:29:29;5.10;95.70
24426;DHT22;12611;44.446;26.000;2022-12-24T04:31:57;5.10;95.60
24426;DHT22;12611;44.446;26.000;2022-12-24T04:34:26;5.10;95.70
24426;DHT22;12611;44.446;26.000;2022-12-24T04:36:54;5.20;95.60
24426;DHT22;12611;44.446;26.000;2022-12-24T04:39:22;5.20;95.60
24426;DHT22;12611;44.446;26.000;2022-12-24T04:41:52;5.20;95.50
24426;DHT22;12611;44.446;26.000;2022-12-24T04:44:20;5.20;95.50
24426;DHT22;12611;44.446;26.000;2022-12-24T04:46:48;5.20;95.40
24426;DHT22;12611;44.446;26.000;2022-12-24T04:49:17;5.20;95.30
24426;DHT22;12611;44.446;26.000;2022-12-24T04:51:45;5.20;95.20
24426;DHT22;12611;44.446;26.000;2022-12-24T04:54:15;5.20;95.10
24426;DHT22;12611;44.446;26.000;2022-12-24T04:56:43;5.20;95.00
24426;DHT22;12611;44.446;26.000;2022-12-24T04:59:12;5.20;94.90
24426;DHT22;12611;44.446;26.000;2022-12-24T05:01:41;5.20;94.70
24426;DHT22;12611;44.446;26.000;2022-12-24T05:04:09;5.20;94.60
24426;DHT22;12611;44.446;26.000;2022-12-24T05:06:38;5.20;94.60
24426;DHT22;12611;44.446;26.000;2022-12-24T05:09:06;5.10;94.50
24426;DHT22;12611;44.446;26.000;2022-12-24T05:11:34;5.10;94.80
24426;DHT22;12611;44.446;26.000;2022-12-24T05:14:03;5.10;94.40
24426;DHT22;12611;44.446;26.000;2022-12-24T05:16:32;5.10;94.20
24426;DHT22;12611;44.446;26.000;2022-12-24T05:19:01;5.10;94.20
24426;DHT22;12611;44.446;26.000;2022-12-24T05:21:29;5.00;94.10
24426;DHT22;12611;44.446;26.000;2022-12-24T05:23:57;5.00;94.10
24426;DHT22;12611;44.446;26.000;2022-12-24T05:26:44;5.00;94.20
24426;DHT22;12611;44.446;26.000;2022-12-24T05:29:13;5.00;94.20
24426;DHT22;12611;44.446;26.000;2022-12-24T05:31:44;5.00;94.20
24426;DHT22;12611;44.446;26.000;2022-12-24T05:34:14;5.00;94.20
24426;DHT22;12611;44.446;26.000;2022-12-24T05:36:43;5.00;94.10
24426;DHT22;12611;44.446;26.000;2022-12-24T05:39:13;5.00;94.00
24426;DHT22;12611;44.446;26.000;2022-12-24T05:41:43;4.90;94.00
24426;DHT22;12611;44.446;26.000;2022-12-24T05:44:12;4.90;94.10
24426;DHT22;12611;44.446;26.000;2022-12-24T05:46:42;5.00;94.10
24426;DHT22;12611;44.446;26.000;2022-12-24T05:49:11;4.90;93.90
24426;DHT22;12611;44.446;26.000;2022-12-24T05:51:39;4.90;93.80
24426;DHT22;12611;44.446;26.000;2022-12-24T05:54:08;4.90;93.70
24426;DHT22;12611;44.446;26.000;2022-12-24T05:56:36;4.90;93.70
24426;DHT22;12611;44.446;26.000;2022-12-24T05:59:05;4.80;93.70
24426;DHT22;12611;44.446;26.000;2022-12-24T06:01:33;4.80;93.70
24426;DHT22;12611;44.446;26.000;2022-12-24T06:04:03;4.80;93.70
24426;DHT22;12611;44.446;26.000;2022-12-24T06:06:31;4.80;93.70
24426;DHT22;12611;44.446;26.000;2022-12-24T06:09:00;4.80;93.70
24426;DHT22;12611;44.446;26.000;2022-12-24T06:11:28;4.80;93.70
24426;DHT22;12611;44.446;26.000;2022-12-24T06:13:56;4.80;93.70
24426;DHT22;12611;44.446;26.000;2022-12-24T06:16:25;4.80;93.70
24426;DHT22;12611;44.446;26.000;2022-12-24T06:18:54;4.80;93.70
24426;DHT22;12611;44.446;26.000;2022-12-24T06:21:23;4.80;93.70
24426;DHT22;12611;44.446;26.000;2022-12-24T06:23:52;4.70;93.70
24426;DHT22;12611;44.446;26.000;2022-12-24T06:26:21;4.70;93.80
24426;DHT22;12611;44.446;26.000;2022-12-24T06:28:50;4.70;93.90
24426;DHT22;12611;44.446;26.000;2022-12-24T06:31:20;4.60;93.90
24426;DHT22;12611;44.446;26.000;2022-12-24T06:33:50;4.70;94.00
24426;DHT22;12611;44.446;26.000;2022-12-24T06:36:20;4.70;94.00
24426;DHT22;12611;44.446;26.000;2022-12-24T06:38:50;4.60;94.00
24426;DHT22;12611;44.446;26.000;2022-12-24T06:41:19;4.60;94.00
24426;DHT22;12611;44.446;26.000;2022-12-24T06:43:48;4.60;94.00
24426;DHT22;12611;44.446;26.000;2022-12-24T06:46:18;4.60;94.10
24426;DHT22;12611;44.446;26.000;2022-12-24T06:48:47;4.50;94.10
24426;DHT22;12611;44.446;26.000;2022-12-24T06:51:16;4.50;94.20
24426;DHT22;12611;44.446;26.000;2022-12-24T06:53:46;4.60;94.30
24426;DHT22;12611;44.446;26.000;2022-12-24T06:56:19;4.60;94.30
24426;DHT22;12611;44.446;26.000;2022-12-24T06:58:48;4.60;94.30
24426;DHT22;12611;44.446;26.000;2022-12-24T07:01:18;4.60;94.30
24426;DHT22;12611;44.446;26.000;2022-12-24T07:03:47;4.60;94.30
24426;DHT22;12611;44.446;26.000;2022-12-24T07:06:18;4.70;94.50
24426;DHT22;12611;44.446;26.000;2022-12-24T07:08:47;4.70;94.50
24426;DHT22;12611;44.446;26.000;2022-12-24T07:11:17;4.80;94.50
24426;DHT22;12611;44.446;26.000;2022-12-24T07:13:46;4.80;94.50
24426;DHT22;12611;44.446;26.000;2022-12-24T07:16:15;4.80;94.50
24426;DHT22;12611;44.446;26.000;2022-12-24T07:18:44;4.90;94.60
24426;DHT22;12611;44.446;26.000;2022-12-24T07:21:12;4.90;94.60
24426;DHT22;12611;44.446;26.000;2022-12-24T07:23:41;5.00;94.70
24426;DHT22;12611;44.446;26.000;2022-12-24T07:26:10;5.10;95.10
24426;DHT22;12611;44.446;26.000;2022-12-24T07:28:39;5.10;94.80
24426;DHT22;12611;44.446;26.000;2022-12-24T07:31:08;5.20;94.80
24426;DHT22;12611;44.446;26.000;2022-12-24T07:33:36;5.30;95.10
24426;DHT22;12611;44.446;26.000;2022-12-24T07:36:07;5.40;95.10
24426;DHT22;12611;44.446;26.000;2022-12-24T07:38:37;5.50;95.20
24426;DHT22;12611;44.446;26.000;2022-12-24T07:41:05;5.60;95.20
24426;DHT22;12611;44.446;26.000;2022-12-24T07:43:33;5.60;95.10
24426;DHT22;12611;44.446;26.000;2022-12-24T07:46:03;5.80;95.10
24426;DHT22;12611;44.446;26.000;2022-12-24T07:48:32;5.80;95.30
24426;DHT22;12611;44.446;26.000;2022-12-24T07:51:01;5.90;95.20
24426;DHT22;12611;44.446;26.000;2022-12-24T07:53:30;5.90;95.20
24426;DHT22;12611;44.446;26.000;2022-12-24T07:55:58;6.00;95.20
24426;DHT22;12611;44.446;26.000;2022-12-24T07:58:27;6.10;95.20
24426;DHT22;12611;44.446;26.000;2022-12-24T08:00:59;6.20;95.30
24426;DHT22;12611;44.446;26.000;2022-12-24T08:03:29;6.30;95.30
24426;DHT22;12611;44.446;26.000;2022-12-24T08:05:57;6.40;95.30
24426;DHT22;12611;44.446;26.000;2022-12-24T08:08:26;6.50;95.30
24426;DHT22;12611;44.446;26.000;2022-12-24T08:11:00;6.60;95.20
24426;DHT22;12611;44.446;26.000;2022-12-24T08:13:29;6.70;95.30
24426;DHT22;12611;44.446;26.000;2022-12-24T08:15:58;6.70;95.10
24426;DHT22;12611;44.446;26.000;2022-12-24T08:18:26;6.80;95.10
24426;DHT22;12611;44.446;26.000;2022-12-24T08:20:56;6.90;95.20
24426;DHT22;12611;44.446;26.000;2022-12-24T08:23:25;7.00;95.30
24426;DHT22;12611;44.446;26.000;2022-12-24T08:25:53;7.00;95.20
24426;DHT22;12611;44.446;26.000;2022-12-24T08:28:21;7.10;95.30
24426;DHT22;12611;44.446;26.000;2022-12-24T08:30:50;7.10;95.20
24426;DHT22;12611;44.446;26.000;2022-12-24T08:33:18;7.10;95.30
24426;DHT22;12611;44.446;26.000;2022-12-24T08:35:48;7.20;95.30
24426;DHT22;12611;44.446;26.000;2022-12-24T08:38:19;7.20;95.20
24426;DHT22;12611;44.446;26.000;2022-12-24T08:40:47;7.30;95.20
24426;DHT22;12611;44.446;26.000;2022-12-24T08:43:16;7.30;95.10
24426;DHT22;12611;44.446;26.000;2022-12-24T08:45:47;7.40;95.10
24426;DHT22;12611;44.446;26.000;2022-12-24T08:48:18;7.40;95.10
24426;DHT22;12611;44.446;26.000;2022-12-24T08:50:50;7.50;95.10
24426;DHT22;12611;44.446;26.000;2022-12-24T08:53:28;7.60;95.20
24426;DHT22;12611;44.446;26.000;2022-12-24T08:56:01;7.70;95.20
24426;DHT22;12611;44.446;26.000;2022-12-24T08:58:30;7.90;95.20
24426;DHT22;12611;44.446;26.000;2022-12-24T09:00:59;8.00;95.30
24426;DHT22;12611;44.446;26.000;2022-12-24T09:03:28;8.10;95.20
24426;DHT22;12611;44.446;26.000;2022-12-24T09:05:56;8.20;95.20
24426;DHT22;12611;44.446;26.000;2022-12-24T09:08:26;8.40;95.30
24426;DHT22;12611;44.446;26.000;2022-12-24T09:10:54;8.50;95.30
24426;DHT22;12611;44.446;26.000;2022-12-24T09:13:23;8.60;95.30
24426;DHT22;12611;44.446;26.000;2022-12-24T09:15:54;8.70;95.40
24426;DHT22;12611;44.446;26.000;2022-12-24T09:18:23;8.80;95.50
24426;DHT22;12611;44.446;26.000;2022-12-24T09:20:57;8.80;95.40
24426;DHT22;12611;44.446;26.000;2022-12-24T09:23:26;8.90;95.30
24426;DHT22;12611;44.446;26.000;2022-12-24T09:25:55;8.90;95.20
24426;DHT22;12611;44.446;26.000;2022-12-24T09:28:25;9.00;94.90
24426;DHT22;12611;44.446;26.000;2022-12-24T09:30:55;9.00;94.80
24426;DHT22;12611;44.446;26.000;2022-12-24T09:33:24;9.00;94.80
24426;DHT22;12611;44.446;26.000;2022-12-24T09:35:53;9.00;94.80
24426;DHT22;12611;44.446;26.000;2022-12-24T09:38:22;9.10;94.80
24426;DHT22;12611;44.446;26.000;2022-12-24T09:40:52;9.10;94.80
24426;DHT22;12611;44.446;26.000;2022-12-24T09:43:23;9.10;94.90
24426;DHT22;12611;44.446;26.000;2022-12-24T09:46:03;9.20;94.80
24426;DHT22;12611;44.446;26.000;2022-12-24T09:48:34;9.10;94.40
24426;DHT22;12611;44.446;26.000;2022-12-24T09:51:06;9.10;94.50
24426;DHT22;12611;44.446;26.000;2022-12-24T09:53:39;9.10;94.60
24426;DHT22;12611;44.446;26.000;2022-12-24T09:56:16;9.20;94.60
24426;DHT22;12611;44.446;26.000;2022-12-24T09:58:47;9.20;94.50
24426;DHT22;12611;44.446;26.000;2022-12-24T10:01:18;9.30;94.50
24426;DHT22;12611;44.446;26.000;2022-12-24T10:03:47;9.30;94.30
24426;DHT22;12611;44.446;26.000;2022-12-24T10:06:17;9.30;94.20
24426;DHT22;12611;44.446;26.000;2022-12-24T10:09:06;9.30;94.10
24426;DHT22;12611;44.446;26.000;2022-12-24T10:11:45;9.40;94.10
24426;DHT22;12611;44.446;26.000;2022-12-24T10:14:31;9.30;94.00
24426;DHT22;12611;44.446;26.000;2022-12-24T10:17:19;9.30;93.90
24426;DHT22;12611;44.446;26.000;2022-12-24T10:20:02;9.40;93.90
24426;DHT22;12611;44.446;26.000;2022-12-24T10:22:38;9.40;93.90
24426;DHT22;12611;44.446;26.000;2022-12-24T10:25:16;9.40;94.00
24426;DHT22;12611;44.446;26.000;2022-12-24T10:27:48;9.40;94.20
24426;DHT22;12611;44.446;26.000;2022-12-24T10:30:20;9.40;94.30
24426;DHT22;12611;44.446;26.000;2022-12-24T10:32:50;9.50;94.40
24426;DHT22;12611;44.446;26.000;2022-12-24T10:35:21;9.60;94.50
24426;DHT22;12611;44.446;26.000;2022-12-24T10:37:51;9.70;94.60
24426;DHT22;12611;44.446;26.000;2022-12-24T10:40:30;9.70;94.80
24426;DHT22;12611;44.446;26.000;2022-12-24T10:43:10;9.80;94.60
24426;DHT22;12611;44.446;26.000;2022-12-24T10:45:45;9.80;94.60
24426;DHT22;12611;44.446;26.000;2022-12-24T10:48:21;9.80;94.60
24426;DHT22;12611;44.446;26.000;2022-12-24T10:50:54;9.80;94.60
24426;DHT22;12611;44.446;26.000;2022-12-24T10:53:31;9.80;94.70
24426;DHT22;12611;44.446;26.000;2022-12-24T10:56:04;9.90;94.90
24426;DHT22;12611;44.446;26.000;2022-12-24T10:58:34;9.90;94.90
24426;DHT22;12611;44.446;26.000;2022-12-24T11:01:03;10.00;95.10
24426;DHT22;12611;44.446;26.000;2022-12-24T11:03:33;10.00;95.10
24426;DHT22;12611;44.446;26.000;2022-12-24T11:06:04;10.00;95.00
24426;DHT22;12611;44.446;26.000;2022-12-24T11:08:33;10.00;95.00
24426;DHT22;12611;44.446;26.000;2022-12-24T11:11:04;10.00;94.90
24426;DHT22;12611;44.446;26.000;2022-12-24T11:13:36;10.10;94.90
24426;DHT22;12611;44.446;26.000;2022-12-24T11:16:09;10.00;95.30
24426;DHT22;12611;44.446;26.000;2022-12-24T11:18:46;10.00;95.30
24426;DHT22;12611;44.446;26.000;2022-12-24T11:21:22;10.00;95.30
24426;DHT22;12611;44.446;26.000;2022-12-24T11:23:53;10.00;95.60
24426;DHT22;12611;44.446;26.000;2022-12-24T11:26:24;10.00;95.60
24426;DHT22;12611;44.446;26.000;2022-12-24T11:29:13;10.00;95.70
24426;DHT22;12611;44.446;26.000;2022-12-24T11:31:44;10.10;95.70
24426;DHT22;12611;44.446;26.000;2022-12-24T11:34:24;10.10;95.70
24426;DHT22;12611;44.446;26.000;2022-12-24T11:37:08;10.10;95.70
24426;DHT22;12611;44.446;26.000;2022-12-24T11:39:45;10.10;95.80
24426;DHT22;12611;44.446;26.000;2022-12-24T11:42:30;10.10;96.00
24426;DHT22;12611;44.446;26.000;2022-12-24T11:45:06;10.00;96.10
24426;DHT22;12611;44.446;26.000;2022-12-24T11:47:37;10.10;96.10
24426;DHT22;12611;44.446;26.000;2022-12-24T11:50:24;10.00;96.20
24426;DHT22;12611;44.446;26.000;2022-12-24T11:52:59;10.00;96.20
24426;DHT22;12611;44.446;26.000;2022-12-24T11:55:41;9.90;96.20
24426;DHT22;12611;44.446;26.000;2022-12-24T11:58:18;9.90;96.50
24426;DHT22;12611;44.446;26.000;2022-12-24T12:01:03;9.90;96.30
24426;DHT22;12611;44.446;26.000;2022-12-24T12:03:44;10.00;96.40
24426;DHT22;12611;44.446;26.000;2022-12-24T12:06:23;10.00;96.50
24426;DHT22;12611;44.446;26.000;2022-12-24T12:08:55;9.90;96.50
24426;DHT22;12611;44.446;26.000;2022-12-24T12:11:25;9.90;96.50
24426;DHT22;12611;44.446;26.000;2022-12-24T12:13:56;10.00;96.60
24426;DHT22;12611;44.446;26.000;2022-12-24T12:16:29;10.00;96.70
24426;DHT22;12611;44.446;26.000;2022-12-24T12:19:22;10.10;96.70
24426;DHT22;12611;44.446;26.000;2022-12-24T12:21:51;10.10;97.00
24426;DHT22;12611;44.446;26.000;2022-12-24T12:24:25;10.10;97.00
24426;DHT22;12611;44.446;26.000;2022-12-24T12:27:09;10.10;97.00
24426;DHT22;12611;44.446;26.000;2022-12-24T12:29:44;10.10;97.00
24426;DHT22;12611;44.446;26.000;2022-12-24T12:32:22;10.20;96.80
24426;DHT22;12611;44.446;26.000;2022-12-24T12:35:00;10.10;96.90
24426;DHT22;12611;44.446;26.000;2022-12-24T12:37:33;10.20;96.80
24426;DHT22;12611;44.446;26.000;2022-12-24T12:40:05;10.10;96.80
24426;DHT22;12611;44.446;26.000;2022-12-24T12:42:39;10.10;96.80
24426;DHT22;12611;44.446;26.000;2022-12-24T12:45:30;10.10;96.80
24426;DHT22;12611;44.446;26.000;2022-12-24T12:50:46;10.00;96.90
24426;DHT22;12611;44.446;26.000;2022-12-24T12:53:28;10.10;97.00
24426;DHT22;12611;44.446;26.000;2022-12-24T12:56:02;10.00;97.00
24426;DHT22;12611;44.446;26.000;2022-12-24T12:58:36;10.00;97.00
24426;DHT22;12611;44.446;26.000;2022-12-24T13:01:08;10.00;97.10
24426;DHT22;12611;44.446;26.000;2022-12-24T13:04:13;9.90;97.10
24426;DHT22;12611;44.446;26.000;2022-12-24T13:07:16;9.90;97.40
24426;DHT22;12611;44.446;26.000;2022-12-24T13:10:14;9.90;97.10
24426;DHT22;12611;44.446;26.000;2022-12-24T13:12:58;9.80;97.20
24426;DHT22;12611;44.446;26.000;2022-12-24T13:15:46;9.80;97.20
24426;DHT22;12611;44.446;26.000;2022-12-24T13:18:29;9.80;97.30
24426;DHT22;12611;44.446;26.000;2022-12-24T13:21:02;9.80;97.30
24426;DHT22;12611;44.446;26.000;2022-12-24T13:23:30;9.80;97.30
24426;DHT22;12611;44.446;26.000;2022-12-24T13:26:09;9.80;97.30
24426;DHT22;12611;44.446;26.000;2022-12-24T13:28:38;9.80;97.40
24426;DHT22;12611;44.446;26.000;2022-12-24T13:31:27;9.90;97.40
24426;DHT22;12611;44.446;26.000;2022-12-24T13:34:01;9.90;97.30
24426;DHT22;12611;44.446;26.000;2022-12-24T13:37:05;9.90;97.30
24426;DHT22;12611;44.446;26.000;2022-12-24T13:42:47;10.10;97.30
24426;DHT22;12611;44.446;26.000;2022-12-24T13:45:44;10.10;97.10
24426;DHT22;12611;44.446;26.000;2022-12-24T13:51:18;10.00;97.10
24426;DHT22;12611;44.446;26.000;2022-12-24T13:53:49;10.00;97.10
24426;DHT22;12611;44.446;26.000;2022-12-24T13:56:25;9.90;97.20
24426;DHT22;12611;44.446;26.000;2022-12-24T13:59:09;9.90;97.60
24426;DHT22;12611;44.446;26.000;2022-12-24T14:01:41;9.90;97.20
24426;DHT22;12611;44.446;26.000;2022-12-24T14:04:22;9.80;97.20
24426;DHT22;12611;44.446;26.000;2022-12-24T14:06:52;9.80;97.30
24426;DHT22;12611;44.446;26.000;2022-12-24T14:09:23;9.70;97.30
24426;DHT22;12611;44.446;26.000;2022-12-24T14:12:27;9.70;97.40
24426;DHT22;12611;44.446;26.000;2022-12-24T14:14:57;9.70;97.70
24426;DHT22;12611;44.446;26.000;2022-12-24T14:17:27;9.70;97.70
24426;DHT22;12611;44.446;26.000;2022-12-24T14:19:58;9.60;97.60
24426;DHT22;12611;44.446;26.000;2022-12-24T14:22:29;9.60;97.70
24426;DHT22;12611;44.446;26.000;2022-12-24T14:25:01;9.50;97.80
24426;DHT22;12611;44.446;26.000;2022-12-24T14:27:37;9.50;97.80
24426;DHT22;12611;44.446;26.000;2022-12-24T14:30:15;9.40;97.90
24426;DHT22;12611;44.446;26.000;2022-12-24T14:32:45;9.50;97.90
24426;DHT22;12611;44.446;26.000;2022-12-24T14:35:16;9.40;98.00
24426;DHT22;12611;44.446;26.000;2022-12-24T14:37:47;9.40;97.90
24426;DHT22;12611;44.446;26.000;2022-12-24T14:40:20;9.40;98.20
24426;DHT22;12611;44.446;26.000;2022-12-24T14:42:57;9.40;98.20
24426;DHT22;12611;44.446;26.000;2022-12-24T14:45:32;9.30;98.30
24426;DHT22;12611;44.446;26.000;2022-12-24T14:48:07;9.30;98.20
24426;DHT22;12611;44.446;26.000;2022-12-24T14:53:49;9.40;98.30
24426;DHT22;12611;44.446;26.000;2022-12-24T14:56:21;9.40;98.10
24426;DHT22;12611;44.446;26.000;2022-12-24T14:58:50;9.40;98.00
24426;DHT22;12611;44.446;26.000;2022-12-24T15:01:21;9.40;98.00
24426;DHT22;12611;44.446;26.000;2022-12-24T15:04:00;9.40;97.80
24426;DHT22;12611;44.446;26.000;2022-12-24T15:06:34;9.40;97.80
24426;DHT22;12611;44.446;26.000;2022-12-24T15:09:03;9.40;97.60
24426;DHT22;12611;44.446;26.000;2022-12-24T15:11:33;9.40;97.60
24426;DHT22;12611;44.446;26.000;2022-12-24T15:14:03;9.30;97.60
24426;DHT22;12611;44.446;26.000;2022-12-24T15:16:34;9.30;97.70
24426;DHT22;12611;44.446;26.000;2022-12-24T15:19:06;9.30;97.60
24426;DHT22;12611;44.446;26.000;2022-12-24T15:21:37;9.30;97.60
24426;DHT22;12611;44.446;26.000;2022-12-24T15:24:22;9.30;97.60
24426;DHT22;12611;44.446;26.000;2022-12-24T15:26:53;9.30;97.60
24426;DHT22;12611;44.446;26.000;2022-12-24T15:29:23;9.30;97.60
24426;DHT22;12611;44.446;26.000;2022-12-24T15:31:55;9.30;97.50
24426;DHT22;12611;44.446;26.000;2022-12-24T15:34:28;9.30;97.50
24426;DHT22;12611;44.446;26.000;2022-12-24T15:37:01;9.30;97.50
24426;DHT22;12611;44.446;26.000;2022-12-24T15:39:30;9.20;97.50
24426;DHT22;12611;44.446;26.000;2022-12-24T15:42:01;9.20;97.50
24426;DHT22;12611;44.446;26.000;2022-12-24T15:44:54;9.20;97.70
24426;DHT22;12611;44.446;26.000;2022-12-24T15:47:27;9.10;97.80
24426;DHT22;12611;44.446;26.000;2022-12-24T15:49:56;9.10;98.10
24426;DHT22;12611;44.446;26.000;2022-12-24T15:52:24;9.20;97.70
24426;DHT22;12611;44.446;26.000;2022-12-24T15:54:53;9.10;97.80
24426;DHT22;12611;44.446;26.000;2022-12-24T15:57:28;9.20;97.80
24426;DHT22;12611;44.446;26.000;2022-12-24T15:59:58;9.10;97.90
24426;DHT22;12611;44.446;26.000;2022-12-24T16:02:38;9.10;97.80
24426;DHT22;12611;44.446;26.000;2022-12-24T16:05:31;9.10;97.90
24426;DHT22;12611;44.446;26.000;2022-12-24T16:08:27;9.10;97.90
24426;DHT22;12611;44.446;26.000;2022-12-24T16:11:23;9.10;98.00
24426;DHT22;12611;44.446;26.000;2022-12-24T16:14:01;9.20;97.90
24426;DHT22;12611;44.446;26.000;2022-12-24T16:16:34;9.10;97.90